Time;durP1;ratioP1;P1;durP2;ratioP2;P2;SDS_P1;SDS_P2;PMS_P1;PMS_P2;Temp;Humidity;BMP_temperature;BMP_pressure;BME280_temperature;BME280_humidity;BME280_pressure;Samples;Min_cycle;Max_cycle;Signal;HPM_P1;HPM_P2
2023/03/14 00:01:49;;;;;;;3.22;1.10;;;9.80;99.90;;;;;;5090923;28;20556;-64
2023/03/14 00:04:16;;;;;;;2.78;1.13;;;9.70;99.90;;;;;;5091186;28;20056;-65
2023/03/14 00:06:46;;;;;;;2.47;1.20;;;9.70;99.90;;;;;;5089385;28;20051;-66
2023/03/14 00:09:13;;;;;;;3.08;1.33;;;9.70;99.90;;;;;;5092935;28;20469;-66
2023/03/14 00:11:41;;;;;;;2.88;1.27;;;9.70;99.90;;;;;;5091390;28;20131;-66
2023/03/14 00:14:08;;;;;;;4.03;1.42;;;9.70;99.90;;;;;;5089061;28;20475;-66
2023/03/14 00:16:35;;;;;;;3.35;1.27;;;9.60;99.90;;;;;;5090727;28;20128;-66
2023/03/14 00:19:03;;;;;;;3.88;1.35;;;9.60;99.90;;;;;;5090680;28;20495;-66
2023/03/14 00:21:30;;;;;;;7.18;1.35;;;9.60;99.90;;;;;;5092005;28;20506;-66
2023/03/14 00:23:57;;;;;;;4.53;1.40;;;9.50;99.90;;;;;;5090690;28;20044;-66
2023/03/14 00:26:24;;;;;;;6.18;1.30;;;9.50;99.90;;;;;;5090713;28;20360;-66
2023/03/14 00:28:53;;;;;;;6.63;1.80;;;9.60;99.90;;;;;;5090054;28;20643;-66
2023/03/14 00:31:20;;;;;;;3.55;1.02;;;9.60;99.90;;;;;;5089175;28;20079;-65
2023/03/14 00:33:48;;;;;;;4.53;1.20;;;9.50;99.90;;;;;;5090939;28;20486;-64
2023/03/14 00:36:17;;;;;;;4.15;1.20;;;9.60;99.90;;;;;;5088728;28;20040;-65
2023/03/14 00:38:47;;;;;;;2.35;1.20;;;9.60;99.90;;;;;;5090480;28;20046;-64
2023/03/14 00:41:19;;;;;;;4.35;1.20;;;9.60;99.90;;;;;;5090810;28;20064;-64
2023/03/14 00:43:47;;;;;;;2.42;1.20;;;9.60;99.90;;;;;;5090011;28;20051;-63
2023/03/14 00:46:15;;;;;;;3.05;0.82;;;9.60;99.90;;;;;;5088932;28;20412;-66
2023/03/14 00:48:45;;;;;;;2.22;0.93;;;9.70;99.90;;;;;;5090701;28;20044;-64
2023/03/14 00:51:14;;;;;;;4.00;1.20;;;9.70;99.90;;;;;;5089077;28;20036;-66
2023/03/14 00:53:43;;;;;;;1.55;0.85;;;9.60;99.90;;;;;;5088619;28;20506;-65
2023/03/14 00:56:12;;;;;;;1.77;0.80;;;9.70;99.90;;;;;;5090470;28;20063;-63
2023/03/14 00:58:40;;;;;;;2.55;0.80;;;9.60;99.90;;;;;;5090187;28;20048;-66
2023/03/14 01:01:09;;;;;;;1.50;0.80;;;9.70;99.90;;;;;;5104228;28;20047;-64
2023/03/14 01:03:37;;;;;;;1.85;0.80;;;9.70;99.90;;;;;;5089961;28;20122;-64
2023/03/14 01:06:09;;;;;;;0.75;0.60;;;9.70;99.90;;;;;;5093450;28;20062;-64
2023/03/14 01:08:36;;;;;;;1.63;0.70;;;9.70;99.90;;;;;;5100857;28;20082;-65
2023/03/14 01:11:14;;;;;;;1.33;0.77;;;9.70;99.90;;;;;;5094339;28;20040;-65
2023/03/14 01:13:41;;;;;;;1.15;0.60;;;9.70;99.90;;;;;;5093733;28;20085;-66
2023/03/14 01:16:10;;;;;;;1.25;0.70;;;9.70;99.90;;;;;;5093837;28;20063;-64
2023/03/14 01:18:40;;;;;;;1.90;0.77;;;9.70;99.90;;;;;;5094319;28;20498;-66
2023/03/14 01:21:17;;;;;;;0.65;0.60;;;9.70;99.90;;;;;;5094520;28;20039;-64
2023/03/14 01:23:46;;;;;;;2.92;0.65;;;9.60;99.90;;;;;;5097118;28;20054;-66
2023/03/14 01:26:16;;;;;;;1.15;0.70;;;9.70;99.90;;;;;;5102534;28;20044;-64
2023/03/14 01:28:43;;;;;;;2.63;0.60;;;9.60;99.90;;;;;;5106567;28;20044;-65
2023/03/14 01:31:11;;;;;;;0.98;0.60;;;9.60;99.90;;;;;;5092930;28;20409;-66
2023/03/14 01:33:40;;;;;;;1.08;0.60;;;9.60;99.90;;;;;;5107399;28;20365;-67
2023/03/14 01:36:10;;;;;;;0.50;0.50;;;9.60;99.90;;;;;;5092051;28;20520;-67
2023/03/14 01:38:39;;;;;;;1.65;0.50;;;9.50;99.90;;;;;;5098945;28;20044;-66
2023/03/14 01:41:15;;;;;;;1.30;0.55;;;9.50;99.90;;;;;;5080910;28;20054;-68
2023/03/14 01:43:44;;;;;;;1.60;0.50;;;9.50;99.90;;;;;;5091748;28;20198;-66
2023/03/14 01:46:35;;;;;;;1.27;0.63;;;9.50;99.90;;;;;;5093384;28;20491;-66
2023/03/14 01:49:09;;;;;;;1.13;0.60;;;9.50;99.90;;;;;;5091548;28;20044;-67
2023/03/14 01:51:42;;;;;;;1.45;0.60;;;9.50;99.90;;;;;;5091880;28;20313;-66
2023/03/14 01:54:31;;;;;;;0.75;0.50;;;9.40;99.90;;;;;;5091746;28;20111;-66
2023/03/14 01:57:13;;;;;;;0.50;0.50;;;9.50;99.90;;;;;;5074769;28;20097;-68
2023/03/14 01:59:48;;;;;;;0.82;0.50;;;9.50;99.90;;;;;;5061446;28;20036;-67
2023/03/14 02:02:16;;;;;;;1.08;0.57;;;9.50;99.90;;;;;;5099496;28;20040;-67
2023/03/14 02:04:45;;;;;;;0.77;0.52;;;9.50;99.90;;;;;;5090263;28;20042;-68
2023/03/14 02:07:24;;;;;;;2.90;0.50;;;9.60;99.90;;;;;;5090829;28;20039;-67
2023/03/14 02:10:22;;;;;;;0.90;0.60;;;9.60;99.90;;;;;;5094085;28;20493;-68
2023/03/14 02:12:52;;;;;;;1.15;0.52;;;9.60;99.90;;;;;;5112080;28;20050;-67
2023/03/14 02:15:40;;;;;;;0.90;0.60;;;9.70;99.90;;;;;;5101249;28;20062;-68
2023/03/14 02:18:31;;;;;;;1.27;0.80;;;9.70;99.90;;;;;;5101633;28;20079;-67
2023/03/14 02:21:18;;;;;;;1.70;0.70;;;9.70;99.90;;;;;;5094777;28;20536;-68
2023/03/14 02:24:10;;;;;;;0.82;0.60;;;9.70;99.90;;;;;;5091784;28;20522;-70
2023/03/14 02:27:03;;;;;;;2.05;0.90;;;9.70;99.90;;;;;;5091381;28;20401;-65
2023/03/14 02:29:33;;;;;;;1.38;0.60;;;9.60;99.90;;;;;;5090680;28;20040;-67
2023/03/14 02:32:02;;;;;;;3.15;0.60;;;9.60;99.90;;;;;;5093503;28;20482;-66
2023/03/14 02:34:31;;;;;;;0.52;0.50;;;9.60;99.90;;;;;;5090307;28;20044;-66
2023/03/14 02:37:00;;;;;;;1.30;0.60;;;9.60;99.90;;;;;;5090257;28;20032;-67
2023/03/14 02:39:44;;;;;;;1.33;0.63;;;9.60;99.90;;;;;;5073064;28;20052;-67
2023/03/14 02:42:13;;;;;;;1.65;0.60;;;9.60;99.90;;;;;;5089234;28;20123;-67
2023/03/14 02:45:19;;;;;;;0.57;0.52;;;9.60;99.90;;;;;;5073145;28;20062;-67
2023/03/14 02:48:00;;;;;;;1.55;0.68;;;9.60;99.90;;;;;;5038939;28;20147;-67
2023/03/14 02:50:33;;;;;;;2.35;0.55;;;9.50;99.90;;;;;;5091716;28;20036;-68
2023/03/14 02:53:01;;;;;;;0.57;0.57;;;9.50;99.90;;;;;;5103840;28;20110;-68
2023/03/14 02:55:28;;;;;;;0.93;0.50;;;9.50;99.90;;;;;;5095420;28;20063;-68
2023/03/14 02:57:59;;;;;;;1.45;0.70;;;9.40;99.90;;;;;;5109285;28;20544;-68
2023/03/14 03:00:27;;;;;;;1.27;0.60;;;9.50;99.90;;;;;;5111077;28;20039;-67
2023/03/14 03:02:55;;;;;;;1.17;0.68;;;9.40;99.90;;;;;;5105129;28;20119;-67
2023/03/14 03:05:22;;;;;;;3.10;0.70;;;9.50;99.90;;;;;;5091941;28;20511;-71
2023/03/14 03:07:49;;;;;;;1.35;0.57;;;9.40;99.90;;;;;;5090771;28;20549;-67
2023/03/14 03:10:17;;;;;;;1.70;0.80;;;9.50;99.90;;;;;;5089676;28;20063;-67
2023/03/14 03:12:44;;;;;;;1.75;0.90;;;9.50;99.90;;;;;;5073138;28;20076;-67
2023/03/14 03:15:12;;;;;;;1.55;0.98;;;9.50;99.90;;;;;;5090193;28;20051;-66
2023/03/14 03:17:39;;;;;;;1.95;0.88;;;9.50;99.90;;;;;;5104305;28;20102;-67
2023/03/14 03:20:08;;;;;;;1.98;0.90;;;9.50;99.90;;;;;;5089407;28;20048;-69
2023/03/14 03:22:38;;;;;;;2.72;0.90;;;9.50;99.90;;;;;;5089296;28;20373;-67
2023/03/14 03:25:10;;;;;;;1.17;0.70;;;9.50;99.90;;;;;;5089775;28;20417;-66
2023/03/14 03:27:38;;;;;;;1.88;0.80;;;9.40;99.90;;;;;;5087932;28;20066;-67
2023/03/14 03:30:06;;;;;;;1.33;0.70;;;9.40;99.90;;;;;;5089132;28;20044;-66
2023/03/14 03:32:35;;;;;;;2.80;0.80;;;9.40;99.90;;;;;;5087138;28;20040;-71
2023/03/14 03:35:04;;;;;;;2.20;0.70;;;9.30;99.90;;;;;;5090600;28;20036;-69
2023/03/14 03:37:34;;;;;;;2.22;0.90;;;9.30;99.90;;;;;;5087313;28;20502;-68
2023/03/14 03:40:05;;;;;;;1.65;0.80;;;9.20;99.90;;;;;;5087300;28;20032;-70
2023/03/14 03:42:35;;;;;;;2.08;0.80;;;9.20;99.90;;;;;;5105022;28;20036;-71
2023/03/14 03:45:03;;;;;;;0.98;0.68;;;9.30;99.90;;;;;;5088271;28;20119;-68
2023/03/14 03:47:34;;;;;;;1.60;0.90;;;9.30;99.90;;;;;;5089173;28;20050;-70
2023/03/14 03:50:02;;;;;;;2.45;0.90;;;9.30;99.90;;;;;;5088960;28;20055;-70
2023/03/14 03:52:29;;;;;;;1.60;0.80;;;9.30;99.90;;;;;;5090041;28;20517;-70
2023/03/14 03:54:56;;;;;;;1.38;0.90;;;9.30;99.90;;;;;;5091701;28;20028;-67
2023/03/14 03:57:24;;;;;;;2.50;0.98;;;9.20;99.90;;;;;;5090750;28;20036;-67
2023/03/14 03:59:51;;;;;;;2.05;1.00;;;9.20;99.90;;;;;;5088974;28;20473;-67
2023/03/14 04:02:18;;;;;;;1.45;0.85;;;9.20;99.90;;;;;;5091695;28;20577;-67
2023/03/14 04:04:46;;;;;;;1.95;0.90;;;9.20;99.90;;;;;;5087456;28;20105;-67
2023/03/14 04:07:14;;;;;;;1.75;0.90;;;9.20;99.90;;;;;;5085384;28;20070;-67
2023/03/14 04:09:42;;;;;;;2.78;1.10;;;9.20;99.90;;;;;;5092116;28;20042;-69
2023/03/14 04:12:21;;;;;;;1.90;0.90;;;9.20;99.90;;;;;;5077728;28;20051;-69
2023/03/14 04:14:59;;;;;;;2.15;1.00;;;9.10;99.90;;;;;;5103130;28;20401;-72
2023/03/14 04:17:26;;;;;;;2.63;1.00;;;9.10;99.90;;;;;;5104836;28;20460;-69
2023/03/14 04:19:54;;;;;;;2.25;0.98;;;9.10;99.90;;;;;;5085940;28;20036;-68
2023/03/14 04:22:29;;;;;;;2.28;1.00;;;9.10;99.90;;;;;;5087801;28;20505;-66
2023/03/14 04:24:57;;;;;;;1.83;0.90;;;9.10;99.90;;;;;;5086692;28;20047;-70
2023/03/14 04:27:24;;;;;;;2.85;0.90;;;9.10;99.90;;;;;;5091625;28;20043;-68
2023/03/14 04:29:53;;;;;;;2.45;0.90;;;9.10;99.90;;;;;;5106724;28;20292;-69
2023/03/14 04:32:32;;;;;;;4.15;1.23;;;9.00;99.90;;;;;;5095798;28;20137;-68
2023/03/14 04:35:00;;;;;;;1.95;0.80;;;9.00;99.90;;;;;;5099702;28;20122;-70
2023/03/14 04:37:27;;;;;;;3.75;1.05;;;9.00;99.90;;;;;;5108415;28;20035;-70
2023/03/14 04:39:54;;;;;;;2.63;1.02;;;9.00;99.90;;;;;;5108053;28;20039;-68
2023/03/14 04:42:27;;;;;;;2.13;1.00;;;9.00;99.90;;;;;;5108466;28;20089;-67
2023/03/14 04:44:54;;;;;;;2.17;1.00;;;8.90;99.90;;;;;;5110248;28;20060;-70
2023/03/14 04:47:25;;;;;;;2.50;1.20;;;8.90;99.90;;;;;;5112428;28;20122;-66
2023/03/14 04:49:53;;;;;;;2.42;1.10;;;8.90;99.90;;;;;;5108272;28;20036;-66
2023/03/14 04:52:22;;;;;;;2.47;1.15;;;8.90;99.90;;;;;;5095436;28;20104;-65
2023/03/14 04:54:50;;;;;;;3.55;1.80;;;8.90;99.90;;;;;;5110830;28;20036;-66
2023/03/14 04:57:19;;;;;;;3.85;1.20;;;8.80;99.90;;;;;;5090654;28;20044;-64
2023/03/14 04:59:47;;;;;;;1.70;0.93;;;8.90;99.90;;;;;;5091507;28;20044;-65
2023/03/14 05:02:29;;;;;;;3.15;1.15;;;8.80;99.90;;;;;;5092383;28;20044;-65
2023/03/14 05:05:13;;;;;;;1.30;0.82;;;8.80;99.90;;;;;;5091397;28;20051;-66
2023/03/14 05:08:04;;;;;;;1.35;0.90;;;8.90;99.90;;;;;;5082792;28;20076;-64
2023/03/14 05:10:56;;;;;;;2.63;1.20;;;8.90;99.90;;;;;;5077535;28;20500;-66
2023/03/14 05:13:42;;;;;;;2.92;1.30;;;8.90;99.90;;;;;;5091728;28;20510;-64
2023/03/14 05:16:33;;;;;;;2.28;1.00;;;8.90;99.90;;;;;;5091560;28;20028;-66
2023/03/14 05:19:32;;;;;;;2.05;1.08;;;8.90;99.90;;;;;;5030630;28;20054;-64
2023/03/14 05:22:20;;;;;;;2.42;1.10;;;8.80;99.90;;;;;;5039520;28;20511;-66
2023/03/14 05:24:48;;;;;;;2.67;1.20;;;8.80;99.90;;;;;;5046717;28;20328;-65
2023/03/14 05:27:36;;;;;;;5.35;1.15;;;8.80;99.90;;;;;;5032921;28;20083;-66
2023/03/14 05:30:32;;;;;;;2.05;0.90;;;8.70;99.90;;;;;;5036678;28;20064;-64
2023/03/14 05:33:18;;;;;;;1.48;0.82;;;8.70;99.90;;;;;;5029456;28;20150;-68
2023/03/14 05:36:04;;;;;;;1.83;1.17;;;8.70;99.90;;;;;;5046798;28;20130;-65
2023/03/14 05:38:53;;;;;;;2.47;1.10;;;8.70;99.90;;;;;;5045715;28;20452;-64
2023/03/14 05:41:39;;;;;;;2.75;1.20;;;8.60;99.90;;;;;;5030344;28;20054;-63
2023/03/14 05:44:28;;;;;;;1.85;1.10;;;8.70;99.90;;;;;;5027025;28;20045;-66
2023/03/14 05:47:05;;;;;;;3.17;1.20;;;8.70;99.90;;;;;;5029506;28;20054;-66
2023/03/14 05:49:50;;;;;;;2.30;1.00;;;8.70;99.90;;;;;;5028420;28;20059;-65
2023/03/14 05:52:18;;;;;;;1.90;0.90;;;8.70;99.90;;;;;;5034211;28;20075;-66
2023/03/14 05:54:59;;;;;;;1.83;1.15;;;8.70;99.90;;;;;;5069291;28;20056;-66
2023/03/14 05:57:50;;;;;;;2.22;1.00;;;8.70;99.90;;;;;;5096853;28;20502;-67
2023/03/14 06:00:23;;;;;;;3.55;1.20;;;8.80;99.90;;;;;;5108221;28;20063;-66
2023/03/14 06:03:02;;;;;;;3.05;1.17;;;8.80;99.90;;;;;;5084281;28;20482;-65
2023/03/14 06:05:33;;;;;;;2.45;1.15;;;8.80;99.90;;;;;;5096836;28;20051;-66
2023/03/14 06:08:01;;;;;;;2.95;1.50;;;8.80;99.90;;;;;;5092505;28;20043;-66
2023/03/14 06:10:30;;;;;;;3.70;1.35;;;8.80;99.90;;;;;;5108785;28;20432;-65
2023/03/14 06:12:58;;;;;;;4.97;1.67;;;8.80;99.90;;;;;;5101797;28;20043;-66
2023/03/14 06:15:25;;;;;;;2.97;1.33;;;8.80;99.90;;;;;;5096525;28;20042;-66
2023/03/14 06:17:55;;;;;;;2.53;1.45;;;8.80;99.90;;;;;;5086565;28;20556;-66
2023/03/14 06:20:23;;;;;;;4.45;1.63;;;8.80;99.90;;;;;;5097539;28;20104;-67
2023/03/14 06:22:51;;;;;;;4.07;1.38;;;8.90;99.90;;;;;;5094796;28;20387;-67
2023/03/14 06:25:19;;;;;;;3.70;1.33;;;8.90;99.90;;;;;;5092491;28;20067;-64
2023/03/14 06:27:47;;;;;;;4.68;1.45;;;9.00;99.90;;;;;;5090065;28;20040;-65
2023/03/14 06:30:16;;;;;;;3.10;1.52;;;9.10;99.90;;;;;;5091142;28;20043;-65
2023/03/14 06:32:44;;;;;;;3.47;1.27;;;9.10;99.90;;;;;;5098964;28;20108;-66
2023/03/14 06:35:13;;;;;;;7.55;1.85;;;9.10;99.90;;;;;;5103545;28;20482;-66
2023/03/14 06:37:43;;;;;;;7.18;2.00;;;9.20;99.90;;;;;;5101714;28;20066;-65
2023/03/14 06:40:16;;;;;;;3.65;1.30;;;9.20;99.90;;;;;;5099370;28;20067;-64
2023/03/14 06:42:57;;;;;;;6.13;3.55;;;9.30;99.90;;;;;;5083526;28;20466;-64
2023/03/14 06:45:26;;;;;;;3.20;1.30;;;9.30;99.90;;;;;;5107786;28;20460;-64
2023/03/14 06:47:55;;;;;;;3.22;1.50;;;9.30;99.90;;;;;;5090872;28;20040;-64
2023/03/14 06:50:29;;;;;;;5.35;1.70;;;9.30;99.90;;;;;;5095768;28;20071;-63
2023/03/14 06:52:57;;;;;;;3.25;1.52;;;9.40;99.90;;;;;;5090927;28;20043;-65
2023/03/14 06:55:26;;;;;;;6.03;2.00;;;9.40;99.90;;;;;;5095994;28;20098;-64
2023/03/14 06:57:53;;;;;;;4.50;1.63;;;9.40;99.90;;;;;;5092527;28;20043;-64
2023/03/14 07:00:21;;;;;;;2.92;1.58;;;9.50;99.90;;;;;;5097203;28;20039;-64
2023/03/14 07:02:52;;;;;;;3.28;1.55;;;9.50;99.90;;;;;;5092159;28;20082;-65
2023/03/14 07:05:40;;;;;;;4.40;1.85;;;9.50;99.90;;;;;;5084274;28;20073;-65
2023/03/14 07:08:08;;;;;;;6.20;1.75;;;9.60;99.90;;;;;;5089304;28;20463;-65
2023/03/14 07:10:36;;;;;;;3.88;1.52;;;9.60;99.90;;;;;;5090529;28;20048;-66
2023/03/14 07:13:05;;;;;;;1.98;1.05;;;9.60;99.90;;;;;;5094063;28;20040;-66
2023/03/14 07:15:37;;;;;;;6.15;1.35;;;9.70;99.90;;;;;;5090626;28;20045;-65
2023/03/14 07:18:08;;;;;;;2.93;1.40;;;9.70;99.90;;;;;;5083877;28;20115;-64
2023/03/14 07:20:35;;;;;;;3.03;1.45;;;9.70;99.90;;;;;;5090103;28;20051;-66
2023/03/14 07:23:03;;;;;;;14.35;7.35;;;9.70;99.90;;;;;;5090288;28;20042;-67
2023/03/14 07:25:39;;;;;;;1.90;1.13;;;9.70;99.90;;;;;;5089471;28;20524;-65
2023/03/14 07:28:06;;;;;;;2.17;1.38;;;9.90;99.90;;;;;;5088787;28;20036;-66
2023/03/14 07:30:35;;;;;;;4.95;1.40;;;9.90;99.90;;;;;;5090116;28;20036;-68
2023/03/14 07:33:12;;;;;;;3.40;1.85;;;10.00;99.90;;;;;;5097169;28;20059;-65
2023/03/14 07:35:39;;;;;;;4.57;1.88;;;10.00;99.90;;;;;;5088937;28;20410;-66
2023/03/14 07:38:06;;;;;;;2.92;1.30;;;10.10;99.90;;;;;;5089550;28;20035;-66
2023/03/14 07:40:38;;;;;;;4.15;1.55;;;10.10;99.90;;;;;;5090300;28;20048;-65
2023/03/14 07:43:06;;;;;;;4.15;1.75;;;10.10;99.90;;;;;;5093942;28;20316;-66
2023/03/14 07:45:48;;;;;;;5.38;1.73;;;10.00;99.90;;;;;;5090743;28;20059;-63
2023/03/14 07:48:17;;;;;;;2.75;1.38;;;10.10;99.90;;;;;;5101795;28;20423;-65
2023/03/14 07:50:49;;;;;;;3.17;1.52;;;10.20;99.90;;;;;;5092404;28;20048;-65
2023/03/14 07:53:18;;;;;;;6.25;1.80;;;10.20;99.90;;;;;;5092504;28;20044;-64
2023/03/14 07:55:47;;;;;;;3.33;1.50;;;10.30;99.90;;;;;;5098819;28;20039;-66
2023/03/14 07:58:14;;;;;;;4.95;1.80;;;10.40;99.90;;;;;;5091032;28;20475;-65
2023/03/14 08:00:43;;;;;;;7.00;1.92;;;10.40;99.90;;;;;;5096643;28;20065;-65
2023/03/14 08:03:10;;;;;;;5.85;2.00;;;10.40;99.90;;;;;;5104694;28;20035;-65
2023/03/14 08:05:37;;;;;;;5.60;2.00;;;10.50;99.90;;;;;;5090989;28;20504;-67
2023/03/14 08:08:05;;;;;;;4.53;1.73;;;10.50;99.90;;;;;;5089591;28;20583;-65
2023/03/14 08:10:33;;;;;;;4.78;2.10;;;10.50;99.90;;;;;;5095443;28;20456;-67
2023/03/14 08:13:01;;;;;;;5.20;2.10;;;10.60;99.90;;;;;;5094873;28;20504;-64
2023/03/14 08:15:30;;;;;;;6.88;2.30;;;10.50;99.90;;;;;;5089159;28;20486;-64
2023/03/14 08:17:57;;;;;;;6.97;2.75;;;10.50;99.90;;;;;;5092799;28;20032;-65
2023/03/14 08:20:27;;;;;;;7.25;2.35;;;10.60;99.90;;;;;;5113233;28;20192;-65
2023/03/14 08:23:00;;;;;;;6.57;3.83;;;10.80;99.90;;;;;;5098834;28;20062;-67
2023/03/14 08:25:28;;;;;;;7.60;1.90;;;10.90;99.90;;;;;;5093693;28;20064;-67
2023/03/14 08:27:56;;;;;;;4.38;1.98;;;10.90;99.90;;;;;;5091155;28;20044;-66
2023/03/14 08:30:24;;;;;;;4.22;1.75;;;11.00;99.90;;;;;;5093748;28;20050;-67
2023/03/14 08:32:52;;;;;;;4.60;1.70;;;11.10;99.90;;;;;;5099296;28;20044;-70
2023/03/14 08:35:19;;;;;;;3.50;1.60;;;11.30;99.90;;;;;;5093387;28;20406;-68
2023/03/14 08:37:47;;;;;;;3.75;1.50;;;11.40;99.90;;;;;;5092918;28;20521;-69
2023/03/14 08:40:15;;;;;;;4.35;1.63;;;11.50;99.90;;;;;;5092636;28;20051;-68
2023/03/14 08:42:42;;;;;;;4.22;1.60;;;11.50;99.90;;;;;;5094115;28;20428;-67
2023/03/14 08:45:13;;;;;;;4.90;1.50;;;11.60;99.90;;;;;;5092835;28;20450;-68
2023/03/14 08:47:40;;;;;;;4.40;1.52;;;11.70;99.90;;;;;;5091968;28;20035;-72
2023/03/14 08:50:09;;;;;;;3.25;1.42;;;11.80;99.90;;;;;;5092682;28;20048;-67
2023/03/14 08:52:40;;;;;;;5.22;1.48;;;11.80;99.90;;;;;;5092308;28;20512;-67
2023/03/14 08:55:10;;;;;;;6.55;1.70;;;12.10;99.90;;;;;;5089622;28;20044;-68
2023/03/14 08:57:38;;;;;;;3.78;1.65;;;12.30;99.90;;;;;;5091911;28;20067;-68
2023/03/14 09:00:10;;;;;;;4.40;1.73;;;12.30;99.90;;;;;;5092925;28;20390;-68
2023/03/14 09:02:38;;;;;;;3.15;1.25;;;12.40;99.90;;;;;;5091312;28;20577;-68
2023/03/14 09:05:06;;;;;;;3.42;1.35;;;12.50;99.90;;;;;;5074628;28;20044;-67
2023/03/14 09:07:33;;;;;;;5.47;1.63;;;12.50;99.90;;;;;;5090991;28;20048;-70
2023/03/14 09:10:00;;;;;;;2.97;1.35;;;12.40;99.90;;;;;;5092448;28;20444;-69
2023/03/14 09:12:29;;;;;;;2.20;1.25;;;12.20;99.90;;;;;;5110233;28;20470;-69
2023/03/14 09:14:56;;;;;;;2.65;1.40;;;12.20;99.90;;;;;;5112095;28;20044;-70
2023/03/14 09:17:23;;;;;;;3.75;1.63;;;12.10;99.90;;;;;;5106724;28;20406;-69
2023/03/14 09:19:50;;;;;;;5.30;1.85;;;12.40;99.90;;;;;;5100465;28;20583;-68
2023/03/14 09:22:18;;;;;;;3.25;1.50;;;12.50;99.90;;;;;;5093961;28;20546;-68
2023/03/14 09:24:45;;;;;;;4.13;1.40;;;12.60;99.90;;;;;;5094864;28;20513;-67
2023/03/14 09:27:13;;;;;;;4.50;1.55;;;12.70;99.90;;;;;;5092219;28;20049;-68
2023/03/14 09:29:40;;;;;;;3.95;1.73;;;12.60;99.90;;;;;;5091481;28;20056;-69
2023/03/14 09:32:08;;;;;;;4.45;1.35;;;13.00;99.90;;;;;;5096614;28;20528;-69
2023/03/14 09:34:35;;;;;;;5.63;1.63;;;13.20;99.90;;;;;;5103195;28;20036;-69
2023/03/14 09:37:03;;;;;;;2.45;1.50;;;13.30;99.90;;;;;;5106316;28;20589;-69
2023/03/14 09:39:30;;;;;;;3.00;1.80;;;13.20;99.90;;;;;;5091509;28;20044;-68
2023/03/14 09:42:01;;;;;;;3.25;1.48;;;13.10;99.90;;;;;;5104887;28;20043;-74
2023/03/14 09:44:34;;;;;;;3.75;1.40;;;13.10;99.90;;;;;;5093511;28;20044;-68
2023/03/14 09:47:06;;;;;;;2.15;1.27;;;12.90;99.90;;;;;;5094796;28;20393;-67
2023/03/14 09:49:42;;;;;;;4.10;1.80;;;12.80;99.90;;;;;;5096429;28;20036;-72
2023/03/14 09:57:14;;;;;;;2.63;1.35;;;12.70;99.90;;;;;;5093425;28;20697;-69
2023/03/14 09:59:44;;;;;;;4.85;1.58;;;12.40;99.90;;;;;;5098827;28;20032;-71
2023/03/14 10:02:19;;;;;;;4.22;1.90;;;12.30;99.90;;;;;;5089377;28;20855;-67
2023/03/14 10:04:50;;;;;;;6.97;1.80;;;12.20;99.90;;;;;;5092799;28;20036;-69
2023/03/14 10:07:22;;;;;;;2.70;1.50;;;12.20;99.90;;;;;;5102455;28;20506;-70
2023/03/14 10:09:51;;;;;;;5.07;1.50;;;12.20;99.90;;;;;;5093536;28;20127;-68
2023/03/14 10:12:20;;;;;;;3.75;1.40;;;12.10;99.90;;;;;;5090608;28;20517;-68
2023/03/14 10:14:53;;;;;;;2.35;1.38;;;12.20;99.90;;;;;;5091830;28;20368;-68
2023/03/14 10:17:21;;;;;;;3.85;1.60;;;12.30;99.90;;;;;;5089102;28;20089;-66
2023/03/14 10:19:52;;;;;;;4.97;1.80;;;12.40;99.90;;;;;;5087006;28;20052;-69
2023/03/14 10:22:22;;;;;;;4.35;1.60;;;12.40;99.90;;;;;;5093125;28;20131;-68
2023/03/14 10:24:53;;;;;;;3.63;1.73;;;12.40;99.90;;;;;;5092066;28;20394;-72
2023/03/14 10:27:32;;;;;;;3.43;1.60;;;12.50;99.90;;;;;;5105397;28;20036;-66
2023/03/14 10:30:44;;;;;;;2.65;1.65;;;12.50;99.90;;;;;;5091765;28;20410;-67
2023/03/14 10:33:27;;;;;;;3.33;1.52;;;12.60;99.90;;;;;;5093275;28;20499;-66
2023/03/14 10:36:00;;;;;;;3.22;1.55;;;12.70;99.90;;;;;;5081670;28;20043;-67
2023/03/14 10:38:34;;;;;;;4.65;1.83;;;12.60;99.90;;;;;;5090032;28;20120;-69
2023/03/14 10:41:14;;;;;;;5.28;1.50;;;12.60;99.90;;;;;;5090032;28;20048;-66
2023/03/14 10:43:41;;;;;;;2.25;1.35;;;12.60;99.90;;;;;;5090376;28;20432;-69
2023/03/14 10:46:15;;;;;;;3.00;1.40;;;12.70;99.90;;;;;;5092037;28;20119;-69
2023/03/14 10:49:06;;;;;;;3.45;1.38;;;12.70;99.90;;;;;;5085754;28;20076;-69
2023/03/14 10:51:33;;;;;;;1.90;1.25;;;12.60;99.90;;;;;;5097308;28;20143;-75
2023/03/14 10:54:21;;;;;;;3.90;1.20;;;12.50;99.90;;;;;;5089432;28;20502;-67
2023/03/14 10:57:00;;;;;;;2.13;1.30;;;12.30;99.90;;;;;;5089676;28;20052;-66
2023/03/14 10:59:37;;;;;;;3.67;1.33;;;12.40;99.90;;;;;;5090696;28;20501;-70
2023/03/14 11:02:19;;;;;;;2.40;1.40;;;12.30;99.90;;;;;;5093222;28;20047;-66
2023/03/14 11:05:05;;;;;;;4.30;1.30;;;12.20;99.90;;;;;;5103821;28;20115;-67
2023/03/14 11:07:43;;;;;;;3.00;1.30;;;12.20;99.90;;;;;;5095100;28;20514;-67
2023/03/14 11:10:23;;;;;;;2.10;1.33;;;12.20;99.90;;;;;;5095027;28;20109;-67
2023/03/14 11:13:06;;;;;;;3.33;1.60;;;12.20;99.90;;;;;;5090732;28;20414;-67
2023/03/14 11:15:53;;;;;;;2.13;1.10;;;12.10;99.90;;;;;;5090649;28;20478;-68
2023/03/14 11:18:48;;;;;;;2.08;1.23;;;12.10;99.90;;;;;;5089813;28;20040;-66
2023/03/14 11:21:25;;;;;;;4.18;1.75;;;12.20;99.90;;;;;;5101799;28;20498;-67
2023/03/14 11:24:21;;;;;;;4.93;1.50;;;12.20;99.90;;;;;;5090554;28;20442;-67
2023/03/14 11:27:12;;;;;;;1.50;1.20;;;12.20;99.90;;;;;;5086926;28;20140;-65
2023/03/14 11:29:47;;;;;;;1.58;1.20;;;12.00;99.90;;;;;;5089746;28;20039;-67
2023/03/14 11:32:36;;;;;;;3.92;1.67;;;12.10;99.90;;;;;;5095496;28;20043;-68
2023/03/14 11:35:22;;;;;;;4.65;1.30;;;12.20;99.90;;;;;;5096395;28;20131;-68
2023/03/14 11:37:55;;;;;;;2.47;1.20;;;12.40;99.90;;;;;;5089189;28;20088;-69
2023/03/14 11:40:27;;;;;;;1.98;1.30;;;12.80;99.90;;;;;;5088992;28;20364;-68
2023/03/14 11:43:19;;;;;;;2.42;1.30;;;13.30;99.90;;;;;;5088506;28;20465;-68
2023/03/14 11:45:49;;;;;;;2.08;1.20;;;13.90;99.90;;;;;;5090159;28;20516;-67
2023/03/14 11:48:32;;;;;;;2.17;1.25;;;14.20;99.90;;;;;;5086626;28;20067;-66
2023/03/14 11:51:04;;;;;;;2.72;1.25;;;14.30;99.90;;;;;;5101443;28;20404;-66
2023/03/14 11:53:47;;;;;;;2.00;1.20;;;14.20;99.90;;;;;;5110576;28;20052;-68
2023/03/14 11:56:33;;;;;;;5.55;1.45;;;14.40;99.90;;;;;;5100754;28;20509;-71
2023/03/14 11:59:06;;;;;;;2.63;1.35;;;14.10;99.90;;;;;;5088315;28;20046;-67
2023/03/14 12:01:57;;;;;;;2.10;1.35;;;13.50;99.90;;;;;;5088028;28;20055;-67
2023/03/14 12:04:36;;;;;;;2.88;1.40;;;13.40;99.90;;;;;;5095132;28;20035;-68
2023/03/14 12:07:18;;;;;;;1.85;1.25;;;13.60;99.90;;;;;;5087314;28;20108;-70
2023/03/14 12:09:48;;;;;;;1.95;1.40;;;13.60;99.90;;;;;;5094105;28;20100;-67
2023/03/14 12:12:26;;;;;;;2.83;1.23;;;13.80;99.90;;;;;;5098242;28;20046;-67
2023/03/14 12:15:00;;;;;;;1.92;1.33;;;14.30;99.90;;;;;;5102019;28;20433;-69
2023/03/14 12:17:40;;;;;;;2.92;1.50;;;15.10;99.90;;;;;;5089827;28;20071;-67
2023/03/14 12:20:20;;;;;;;5.88;1.35;;;15.10;99.90;;;;;;5098392;28;20040;-68
2023/03/14 12:23:01;;;;;;;3.20;1.35;;;15.40;99.90;;;;;;5088730;28;20368;-68
2023/03/14 12:25:31;;;;;;;2.58;1.58;;;15.30;99.90;;;;;;5092079;28;20089;-69
2023/03/14 12:28:21;;;;;;;2.33;1.50;;;14.80;99.90;;;;;;5107264;28;20040;-66
2023/03/14 12:30:48;;;;;;;1.40;1.30;;;14.40;99.90;;;;;;5099847;28;20421;-66
2023/03/14 12:33:18;;;;;;;2.58;1.50;;;14.20;99.90;;;;;;5088245;28;20048;-67
2023/03/14 12:35:58;;;;;;;1.60;1.50;;;14.30;99.90;;;;;;5089134;28;20050;-73
2023/03/14 12:38:49;;;;;;;1.40;1.30;;;14.20;99.90;;;;;;5090532;28;20097;-68
2023/03/14 12:41:25;;;;;;;1.70;1.60;;;14.30;99.90;;;;;;5101391;28;20040;-68
2023/03/14 12:43:52;;;;;;;2.65;1.50;;;14.60;99.90;;;;;;5089478;28;20044;-67
2023/03/14 12:46:24;;;;;;;3.22;1.58;;;14.50;99.90;;;;;;5088461;28;20817;-66
2023/03/14 12:49:00;;;;;;;1.70;1.55;;;14.50;99.90;;;;;;5088894;28;20155;-67
2023/03/14 12:51:39;;;;;;;1.65;1.42;;;14.10;99.90;;;;;;5088780;28;20090;-67
2023/03/14 12:54:15;;;;;;;2.40;1.52;;;14.00;99.90;;;;;;5089090;28;20047;-72
2023/03/14 12:56:48;;;;;;;2.67;1.77;;;13.80;99.90;;;;;;5087987;28;20542;-68
2023/03/14 12:59:18;;;;;;;3.63;1.70;;;13.50;99.90;;;;;;5090057;28;20044;-68
2023/03/14 13:02:15;;;;;;;2.60;1.45;;;13.40;99.90;;;;;;5089194;28;20044;-71
2023/03/14 13:04:48;;;;;;;3.50;1.50;;;13.40;99.90;;;;;;5076477;28;20051;-71
2023/03/14 13:07:44;;;;;;;1.30;1.20;;;12.90;99.90;;;;;;5092251;28;20040;-67
2023/03/14 13:10:11;;;;;;;1.25;1.10;;;12.30;99.90;;;;;;5091926;28;20497;-67
2023/03/14 13:12:51;;;;;;;2.35;1.10;;;11.90;99.90;;;;;;5091661;28;20044;-66
2023/03/14 13:15:30;;;;;;;1.20;1.10;;;11.80;99.90;;;;;;5093351;28;20056;-72
2023/03/14 13:18:14;;;;;;;1.00;1.00;;;11.70;99.90;;;;;;5091710;28;20036;-67
2023/03/14 13:20:55;;;;;;;1.20;1.08;;;11.70;99.90;;;;;;5093332;28;20521;-68
2023/03/14 13:23:27;;;;;;;0.90;0.90;;;11.70;99.90;;;;;;5094536;28;20398;-68
2023/03/14 13:25:56;;;;;;;0.90;0.90;;;11.70;99.90;;;;;;5095726;28;20039;-70
2023/03/14 13:28:23;;;;;;;1.00;0.90;;;11.40;99.90;;;;;;5093040;28;20048;-68
2023/03/14 13:30:57;;;;;;;2.08;0.93;;;11.10;99.90;;;;;;5105618;28;20043;-68